createdAt,value
2018-10-06T00:00:30.417Z,7.10
2018-10-06T00:02:58.939Z,7.03
2018-10-06T00:05:27.429Z,6.87
2018-10-06T00:07:55.968Z,7.33
2018-10-06T00:10:24.489Z,7.00
2018-10-06T00:12:53.020Z,7.40
2018-10-06T00:15:21.526Z,7.17
2018-10-06T00:17:50.060Z,7.20
2018-10-06T00:20:18.570Z,6.80
2018-10-06T00:22:47.080Z,7.50
2018-10-06T00:25:15.575Z,8.27
2018-10-06T00:27:44.096Z,7.50
2018-10-06T00:30:12.634Z,7.70
2018-10-06T00:32:41.152Z,7.30
2018-10-06T00:35:09.667Z,7.70
2018-10-06T00:37:38.215Z,7.73
2018-10-06T00:40:06.747Z,6.73
2018-10-06T00:42:35.260Z,7.43
2018-10-06T00:45:03.785Z,6.63
2018-10-06T00:47:32.321Z,6.87
2018-10-06T00:50:00.826Z,7.37
2018-10-06T00:52:29.319Z,6.93
2018-10-06T00:54:57.836Z,6.97
2018-10-06T00:57:26.327Z,7.13
2018-10-06T00:59:54.862Z,7.27
2018-10-06T01:02:23.341Z,6.97
2018-10-06T01:04:51.857Z,6.60
2018-10-06T01:07:20.351Z,6.67
2018-10-06T01:09:48.873Z,6.53
2018-10-06T01:12:17.379Z,6.80
2018-10-06T01:14:45.902Z,6.60
2018-10-06T01:17:14.395Z,7.00
2018-10-06T01:19:42.999Z,8.00
2018-10-06T01:22:11.493Z,6.80
2018-10-06T01:24:39.999Z,7.60
2018-10-06T01:27:09.326Z,6.47
2018-10-06T01:29:37.841Z,6.63
2018-10-06T01:32:06.425Z,6.93
2018-10-06T01:34:35.251Z,6.87
2018-10-06T01:37:03.750Z,6.70
2018-10-06T01:39:32.562Z,6.83
2018-10-06T01:42:01.558Z,7.90
2018-10-06T01:44:30.093Z,6.70
2018-10-06T01:46:58.610Z,7.37
2018-10-06T01:49:27.141Z,7.10
2018-10-06T01:51:55.645Z,7.13
2018-10-06T01:54:24.159Z,7.30
2018-10-06T01:56:52.649Z,6.83
2018-10-06T01:59:21.181Z,6.73
2018-10-06T02:01:49.735Z,7.57
2018-10-06T02:04:22.218Z,7.40
2018-10-06T02:06:50.709Z,7.43
2018-10-06T02:09:19.242Z,7.73
2018-10-06T02:11:47.779Z,7.03
2018-10-06T02:14:16.321Z,7.80
2018-10-06T02:16:44.936Z,6.50
2018-10-06T02:19:13.451Z,7.17
2018-10-06T02:21:41.981Z,6.60
2018-10-06T02:24:10.509Z,7.13
2018-10-06T02:26:38.993Z,6.40
2018-10-06T02:29:07.517Z,6.63
2018-10-06T02:31:36.039Z,6.87
2018-10-06T02:34:04.642Z,7.80
2018-10-06T02:36:33.155Z,7.23
2018-10-06T02:39:01.693Z,7.30
2018-10-06T02:41:30.198Z,7.27
2018-10-06T02:43:58.718Z,6.90
2018-10-06T02:46:27.235Z,6.73
2018-10-06T02:48:55.789Z,6.77
2018-10-06T02:51:24.311Z,6.33
2018-10-06T02:53:52.917Z,6.50
2018-10-06T02:56:21.487Z,5.97
2018-10-06T02:58:49.990Z,7.17
2018-10-06T03:01:18.529Z,6.97
2018-10-06T03:03:47.024Z,6.67
2018-10-06T03:06:15.554Z,8.47
2018-10-06T03:08:44.054Z,6.90
2018-10-06T03:11:12.576Z,7.07
2018-10-06T03:13:41.103Z,8.00
2018-10-06T03:16:09.934Z,6.43
2018-10-06T03:18:38.429Z,6.80
2018-10-06T03:21:07.043Z,6.83
2018-10-06T03:23:35.551Z,7.43
2018-10-06T03:26:04.074Z,6.87
2018-10-06T03:28:32.592Z,7.80
2018-10-06T03:31:01.134Z,5.83
2018-10-06T03:33:29.678Z,6.03
2018-10-06T03:35:58.214Z,5.43
2018-10-06T03:38:26.714Z,5.60
2018-10-06T03:40:55.248Z,5.27
2018-10-06T03:43:23.735Z,6.10
2018-10-06T03:45:52.271Z,5.90
2018-10-06T03:48:20.773Z,5.53
2018-10-06T03:50:49.311Z,5.87
2018-10-06T03:53:17.804Z,6.57
2018-10-06T03:55:46.334Z,6.23
2018-10-06T03:58:14.871Z,6.23
2018-10-06T04:00:43.389Z,7.07
2018-10-06T04:03:11.909Z,6.33
2018-10-06T04:05:40.462Z,5.83
2018-10-06T04:08:09.058Z,6.60
2018-10-06T04:10:37.577Z,5.90
2018-10-06T04:13:06.330Z,6.23
2018-10-06T04:15:34.845Z,6.30
2018-10-06T04:18:03.351Z,6.60
2018-10-06T04:20:31.879Z,6.30
2018-10-06T04:23:00.389Z,6.30
2018-10-06T04:25:28.985Z,6.77
2018-10-06T04:27:57.535Z,6.93
2018-10-06T04:30:26.066Z,6.53
2018-10-06T04:32:54.556Z,6.63
2018-10-06T04:35:23.108Z,6.60
2018-10-06T04:37:51.601Z,6.10
2018-10-06T04:40:20.106Z,5.87
2018-10-06T04:42:48.611Z,7.53
2018-10-06T04:45:17.130Z,7.03
2018-10-06T04:47:45.630Z,6.60
2018-10-06T04:50:14.168Z,6.73
2018-10-06T04:52:42.675Z,6.80
2018-10-06T04:55:11.226Z,6.10
2018-10-06T04:57:39.748Z,5.67
2018-10-06T05:00:08.258Z,6.40
2018-10-06T05:02:36.777Z,5.90
2018-10-06T05:05:05.289Z,5.93
2018-10-06T05:07:33.820Z,6.53
2018-10-06T05:10:02.322Z,5.93
2018-10-06T05:12:30.851Z,6.50
2018-10-06T05:14:59.355Z,6.03
2018-10-06T05:17:28.107Z,6.60
2018-10-06T05:19:56.630Z,6.23
2018-10-06T05:22:25.164Z,7.27
2018-10-06T05:24:53.657Z,5.83
2018-10-06T05:27:22.182Z,6.87
2018-10-06T05:29:50.681Z,6.63
2018-10-06T05:32:19.205Z,6.70
2018-10-06T05:34:47.733Z,7.27
2018-10-06T05:37:16.268Z,6.10
2018-10-06T05:39:44.768Z,6.93
2018-10-06T05:42:13.293Z,6.50
2018-10-06T05:44:41.782Z,6.90
2018-10-06T05:47:10.315Z,6.70
2018-10-06T05:49:38.813Z,7.00
2018-10-06T05:52:07.341Z,6.83
2018-10-06T05:54:35.854Z,6.30
2018-10-06T05:57:04.381Z,7.00
2018-10-06T05:59:32.897Z,7.07
2018-10-06T06:02:01.440Z,7.00
2018-10-06T06:04:29.947Z,6.47
2018-10-06T06:06:58.511Z,7.40
2018-10-06T06:09:27.022Z,6.50
2018-10-06T06:11:55.566Z,6.17
2018-10-06T06:14:24.065Z,6.40
2018-10-06T06:16:52.591Z,6.07
2018-10-06T06:19:21.088Z,6.23
2018-10-06T06:21:49.609Z,6.43
2018-10-06T06:24:18.106Z,6.97
2018-10-06T06:26:46.625Z,7.30
2018-10-06T06:29:15.135Z,6.50
2018-10-06T06:31:43.648Z,6.70
2018-10-06T06:34:12.171Z,7.27
2018-10-06T06:36:40.687Z,7.13
2018-10-06T06:39:09.833Z,7.43
2018-10-06T06:41:38.773Z,7.07
2018-10-06T06:44:07.574Z,6.27
2018-10-06T06:46:36.177Z,7.00
2018-10-06T06:49:04.880Z,7.27
2018-10-06T06:51:33.421Z,8.17
2018-10-06T06:54:01.901Z,6.90
2018-10-06T06:56:30.446Z,8.73
2018-10-06T06:58:58.973Z,8.40
2018-10-06T07:01:27.465Z,7.60
2018-10-06T07:03:55.978Z,7.30
2018-10-06T07:06:24.478Z,8.93
2018-10-06T07:08:52.990Z,9.70
2018-10-06T07:11:21.516Z,9.60
2018-10-06T07:13:50.048Z,10.07
2018-10-06T07:16:18.580Z,10.30
2018-10-06T07:18:47.114Z,9.73
2018-10-06T07:21:15.632Z,11.00
2018-10-06T07:23:44.161Z,10.60
2018-10-06T07:26:12.666Z,10.77
2018-10-06T07:28:41.273Z,10.43
2018-10-06T07:31:09.767Z,10.93
2018-10-06T07:33:38.329Z,9.77
2018-10-06T07:36:07.145Z,9.70
2018-10-06T07:38:35.674Z,9.90
2018-10-06T07:41:04.181Z,9.30
2018-10-06T07:43:32.742Z,10.00
2018-10-06T07:46:01.347Z,9.10
2018-10-06T07:48:29.879Z,9.63
2018-10-06T07:50:58.384Z,9.20
2018-10-06T07:53:26.909Z,9.47
2018-10-06T07:55:55.415Z,8.70
2018-10-06T07:58:23.983Z,9.00
2018-10-06T08:00:52.504Z,9.00
2018-10-06T08:03:21.039Z,8.40
2018-10-06T08:05:49.542Z,8.80
2018-10-06T08:08:18.083Z,8.40
2018-10-06T08:10:46.588Z,8.83
2018-10-06T08:13:15.120Z,8.60
2018-10-06T08:15:43.643Z,9.00
2018-10-06T08:18:12.197Z,8.47
2018-10-06T08:20:40.706Z,8.37
2018-10-06T08:23:09.277Z,8.10
2018-10-06T08:25:37.784Z,8.40
2018-10-06T08:28:06.302Z,8.40
2018-10-06T08:30:34.830Z,8.57
2018-10-06T08:33:03.390Z,8.17
2018-10-06T08:35:31.918Z,8.93
2018-10-06T08:38:00.675Z,8.63
2018-10-06T08:40:29.567Z,8.27
2018-10-06T08:42:58.201Z,8.50
2018-10-06T08:45:26.937Z,8.57
2018-10-06T08:47:55.564Z,9.70
2018-10-06T08:50:24.199Z,9.10
2018-10-06T08:52:52.898Z,9.50
2018-10-06T08:55:21.450Z,8.43
2018-10-06T08:57:49.980Z,8.70
2018-10-06T09:00:25.243Z,8.67
2018-10-06T09:02:53.811Z,8.87
2018-10-06T09:05:22.368Z,9.00
2018-10-06T09:07:50.901Z,9.70
2018-10-06T09:10:19.453Z,10.00
2018-10-06T09:12:47.953Z,9.80
2018-10-06T09:15:16.481Z,9.90
2018-10-06T09:17:45.014Z,10.50
2018-10-06T09:20:13.541Z,9.63
2018-10-06T09:22:42.037Z,9.47
2018-10-06T09:25:10.590Z,8.93
2018-10-06T09:27:39.085Z,10.23
2018-10-06T09:30:07.684Z,9.67
2018-10-06T09:32:36.299Z,9.10
2018-10-06T09:35:04.862Z,8.73
2018-10-06T09:37:33.390Z,12.20
2018-10-06T09:40:01.923Z,8.93
2018-10-06T09:42:30.493Z,9.03
2018-10-06T09:44:59.015Z,9.20
2018-10-06T09:47:27.533Z,7.47
2018-10-06T09:49:56.109Z,8.10
2018-10-06T09:52:24.609Z,7.40
2018-10-06T09:54:53.127Z,8.00
2018-10-06T09:57:21.648Z,7.70
2018-10-06T09:59:50.179Z,7.77
2018-10-06T10:02:23.982Z,7.30
2018-10-06T10:04:52.560Z,9.87
2018-10-06T10:07:21.068Z,7.60
2018-10-06T10:09:49.650Z,7.57
2018-10-06T10:12:18.128Z,7.70
2018-10-06T10:14:46.668Z,7.63
2018-10-06T10:17:15.291Z,7.77
2018-10-06T10:19:43.816Z,8.40
2018-10-06T10:22:12.435Z,7.90
2018-10-06T10:24:40.890Z,8.67
2018-10-06T10:27:09.405Z,7.93
2018-10-06T10:29:37.947Z,8.67
2018-10-06T10:32:06.468Z,9.20
2018-10-06T10:34:35.100Z,9.50
2018-10-06T10:37:03.569Z,8.60
2018-10-06T10:39:32.184Z,10.30
2018-10-06T10:42:00.643Z,8.70
2018-10-06T10:44:29.248Z,10.13
2018-10-06T10:46:57.759Z,13.37
2018-10-06T10:49:26.356Z,10.27
2018-10-06T10:51:54.844Z,9.60
2018-10-06T10:54:23.412Z,10.60
2018-10-06T10:56:51.916Z,8.77
2018-10-06T10:59:20.508Z,10.33
2018-10-06T11:01:49.025Z,9.60
2018-10-06T11:04:17.565Z,8.70
2018-10-06T11:06:46.077Z,8.40
2018-10-06T11:09:14.586Z,9.67
2018-10-06T11:11:43.137Z,11.60
2018-10-06T11:14:11.668Z,11.60
2018-10-06T11:16:40.198Z,9.83
2018-10-06T11:19:08.705Z,14.40
2018-10-06T11:21:37.232Z,16.60
2018-10-06T11:24:05.772Z,9.50
2018-10-06T11:26:34.322Z,9.47
2018-10-06T11:29:02.825Z,10.07
2018-10-06T11:31:31.355Z,8.50
2018-10-06T11:33:59.892Z,9.90
2018-10-06T11:36:28.434Z,9.40
2018-10-06T11:38:57.002Z,7.83
2018-10-06T11:41:25.541Z,8.80
2018-10-06T11:43:54.171Z,8.93
2018-10-06T11:46:22.714Z,17.90
2018-10-06T11:48:51.227Z,13.60
2018-10-06T11:51:19.766Z,9.93
2018-10-06T11:53:48.306Z,8.87
2018-10-06T11:56:16.837Z,7.73
2018-10-06T11:58:45.368Z,11.73
2018-10-06T12:01:13.949Z,9.57
2018-10-06T12:03:42.461Z,8.10
2018-10-06T12:06:11.503Z,8.10
2018-10-06T12:08:40.057Z,8.47
2018-10-06T12:11:08.618Z,7.90
2018-10-06T12:13:37.135Z,8.20
2018-10-06T12:16:05.674Z,8.37
2018-10-06T12:18:34.177Z,9.73
2018-10-06T12:21:02.710Z,9.20
2018-10-06T12:23:31.213Z,9.40
2018-10-06T12:25:59.875Z,7.10
2018-10-06T12:28:28.365Z,8.33
2018-10-06T12:30:56.870Z,7.83
2018-10-06T12:33:25.418Z,7.70
2018-10-06T12:35:53.947Z,7.47
2018-10-06T12:38:22.486Z,7.57
2018-10-06T12:40:50.985Z,6.67
2018-10-06T12:43:19.519Z,7.80
2018-10-06T12:45:48.047Z,7.83
2018-10-06T12:48:16.575Z,7.23
2018-10-06T12:50:45.099Z,7.60
2018-10-06T12:53:13.679Z,7.40
2018-10-06T12:55:42.195Z,9.30
2018-10-06T12:58:10.737Z,7.60
2018-10-06T13:00:39.281Z,15.17
2018-10-06T13:03:07.805Z,10.57
2018-10-06T13:05:36.337Z,8.60
2018-10-06T13:08:04.869Z,8.13
2018-10-06T13:10:33.365Z,7.60
2018-10-06T13:13:01.899Z,8.07
2018-10-06T13:15:30.409Z,8.20
2018-10-06T13:18:01.893Z,8.97
2018-10-06T13:20:30.400Z,9.77
2018-10-06T13:22:58.949Z,8.13
2018-10-06T13:25:27.451Z,8.97
2018-10-06T13:27:55.981Z,8.17
2018-10-06T13:30:24.498Z,8.30
2018-10-06T13:32:53.145Z,7.83
2018-10-06T13:35:21.677Z,6.80
2018-10-06T13:37:50.304Z,8.10
2018-10-06T13:40:18.818Z,8.30
2018-10-06T13:42:47.349Z,7.30
2018-10-06T13:45:15.849Z,6.60
2018-10-06T13:47:44.369Z,8.73
2018-10-06T13:50:12.866Z,8.80
2018-10-06T13:52:41.384Z,7.67
2018-10-06T13:55:10.029Z,7.77
2018-10-06T13:57:38.594Z,8.30
2018-10-06T14:00:07.211Z,7.70
2018-10-06T14:02:35.738Z,6.70
2018-10-06T14:05:04.279Z,7.43
2018-10-06T14:07:33.042Z,7.37
2018-10-06T14:10:01.542Z,6.53
2018-10-06T14:12:30.056Z,12.20
2018-10-06T14:14:58.581Z,18.30
2018-10-06T14:17:27.108Z,16.87
2018-10-06T14:19:55.658Z,11.23
2018-10-06T14:22:23.409Z,7.73
2018-10-06T14:24:51.938Z,7.63
2018-10-06T14:27:20.447Z,7.03
2018-10-06T14:29:48.975Z,6.83
2018-10-06T14:32:17.485Z,15.00
2018-10-06T14:34:46.037Z,8.37
2018-10-06T14:37:14.541Z,11.57
2018-10-06T14:39:43.083Z,20.23
2018-10-06T14:42:11.598Z,15.83
2018-10-06T14:44:40.142Z,12.97
2018-10-06T14:47:08.713Z,6.60
2018-10-06T14:49:37.210Z,5.80
2018-10-06T14:52:05.723Z,6.30
2018-10-06T14:54:34.242Z,7.47
2018-10-06T14:57:02.785Z,7.50
2018-10-06T14:59:31.333Z,6.77
2018-10-06T15:01:59.878Z,7.37
2018-10-06T15:04:28.407Z,6.63
2018-10-06T15:06:56.921Z,6.67
2018-10-06T15:09:25.463Z,8.07
2018-10-06T15:11:53.986Z,6.00
2018-10-06T15:14:22.507Z,7.00
2018-10-06T15:16:51.014Z,7.10
2018-10-06T15:19:19.564Z,6.90
2018-10-06T15:21:48.074Z,6.87
2018-10-06T15:24:16.618Z,6.90
2018-10-06T15:26:45.128Z,7.17
2018-10-06T15:29:13.644Z,6.83
2018-10-06T15:31:42.188Z,6.40
2018-10-06T15:34:10.708Z,6.60
2018-10-06T15:36:39.304Z,6.67
2018-10-06T15:39:08.776Z,7.50
2018-10-06T15:41:37.609Z,7.40
2018-10-06T15:44:06.159Z,8.50
2018-10-06T15:46:34.692Z,6.80
2018-10-06T15:49:03.226Z,8.37
2018-10-06T15:51:31.759Z,7.10
2018-10-06T15:54:00.337Z,7.83
2018-10-06T15:56:28.959Z,7.30
2018-10-06T15:58:57.457Z,7.00
2018-10-06T16:01:25.994Z,6.73
2018-10-06T16:03:54.493Z,6.87
2018-10-06T16:06:23.017Z,6.77
2018-10-06T16:08:51.634Z,7.07
2018-10-06T16:11:20.162Z,6.63
2018-10-06T16:13:48.657Z,6.77
2018-10-06T16:16:17.178Z,6.70
2018-10-06T16:18:45.688Z,6.90
2018-10-06T16:21:14.208Z,6.60
2018-10-06T16:23:42.734Z,6.53
2018-10-06T16:26:11.520Z,7.43
2018-10-06T16:28:40.063Z,7.47
2018-10-06T16:31:08.589Z,7.07
2018-10-06T16:33:37.215Z,6.93
2018-10-06T16:36:05.690Z,7.50
2018-10-06T16:38:34.531Z,7.30
2018-10-06T16:41:03.025Z,7.27
2018-10-06T16:43:31.549Z,7.40
2018-10-06T16:46:00.044Z,6.93
2018-10-06T16:48:28.571Z,7.80
2018-10-06T16:50:57.059Z,7.47
2018-10-06T16:53:25.586Z,6.97
2018-10-06T16:55:54.093Z,7.47
2018-10-06T16:58:22.633Z,7.90
2018-10-06T17:00:51.144Z,7.70
2018-10-06T17:03:19.665Z,8.00
2018-10-06T17:05:48.185Z,7.73
2018-10-06T17:08:16.700Z,7.90
2018-10-06T17:10:45.200Z,7.70
2018-10-06T17:13:13.727Z,7.40
2018-10-06T17:15:42.234Z,8.43
2018-10-06T17:18:10.755Z,7.83
2018-10-06T17:20:39.246Z,8.60
2018-10-06T17:23:07.775Z,8.60
2018-10-06T17:25:36.286Z,9.00
2018-10-06T17:28:04.842Z,10.40
2018-10-06T17:30:33.347Z,9.27
2018-10-06T17:33:01.841Z,9.30
2018-10-06T17:35:30.570Z,9.77
2018-10-06T17:37:59.070Z,8.70
2018-10-06T17:40:27.616Z,9.30
2018-10-06T17:42:56.149Z,9.67
2018-10-06T17:45:24.671Z,8.37
2018-10-06T17:47:53.180Z,8.37
2018-10-06T17:50:21.834Z,9.93
2018-10-06T17:52:50.359Z,7.73
2018-10-06T17:55:18.873Z,8.47
2018-10-06T17:57:47.383Z,7.27
2018-10-06T18:00:15.918Z,8.90
2018-10-06T18:02:44.415Z,8.80
2018-10-06T18:05:12.939Z,8.97
2018-10-06T18:07:41.430Z,8.53
2018-10-06T18:10:09.962Z,9.03
2018-10-06T18:12:38.513Z,8.60
2018-10-06T18:15:07.086Z,8.37
2018-10-06T18:17:35.989Z,8.07
2018-10-06T18:20:04.875Z,8.67
2018-10-06T18:22:33.334Z,7.80
2018-10-06T18:25:01.863Z,9.00
2018-10-06T18:27:30.362Z,8.50
2018-10-06T18:29:58.860Z,9.83
2018-10-06T18:32:27.394Z,9.60
2018-10-06T18:34:55.918Z,8.73
2018-10-06T18:37:24.481Z,8.83
2018-10-06T18:39:52.971Z,8.43
2018-10-06T18:42:21.500Z,9.17
2018-10-06T18:44:50.012Z,9.07
2018-10-06T18:47:18.536Z,8.20
2018-10-06T18:49:47.026Z,8.67
2018-10-06T18:52:15.565Z,8.97
2018-10-06T18:54:44.075Z,9.07
2018-10-06T18:57:12.591Z,9.30
2018-10-06T18:59:41.080Z,9.27
2018-10-06T19:02:09.607Z,9.47
2018-10-06T19:04:38.111Z,9.73
2018-10-06T19:07:06.649Z,9.33
2018-10-06T19:09:35.147Z,9.00
2018-10-06T19:12:03.786Z,8.53
2018-10-06T19:14:32.339Z,9.40
2018-10-06T19:17:00.851Z,9.90
2018-10-06T19:19:29.343Z,9.57
2018-10-06T19:21:57.929Z,9.00
2018-10-06T19:24:26.466Z,9.87
2018-10-06T19:26:55.085Z,9.40
2018-10-06T19:29:23.613Z,9.37
2018-10-06T19:31:52.133Z,9.50
2018-10-06T19:34:20.686Z,9.70
2018-10-06T19:36:49.208Z,11.30
2018-10-06T19:39:17.729Z,11.90
2018-10-06T19:41:46.263Z,10.30
2018-10-06T19:44:17.758Z,10.33
2018-10-06T19:46:46.311Z,10.33
2018-10-06T19:49:14.814Z,9.70
2018-10-06T19:51:43.368Z,9.90
2018-10-06T19:54:11.885Z,10.20
2018-10-06T19:56:40.414Z,9.73
2018-10-06T19:59:08.913Z,13.87
2018-10-06T20:01:37.436Z,9.43
2018-10-06T20:04:05.992Z,20.30
2018-10-06T20:06:34.523Z,20.57
2018-10-06T20:09:03.082Z,11.07
2018-10-06T20:11:31.622Z,12.60
2018-10-06T20:14:00.120Z,17.60
2018-10-06T20:16:28.655Z,15.87
2018-10-06T20:18:57.230Z,14.10
2018-10-06T20:21:25.743Z,13.47
2018-10-06T20:23:54.261Z,12.13
2018-10-06T20:26:22.782Z,10.17
2018-10-06T20:28:51.306Z,12.60
2018-10-06T20:31:20.059Z,12.23
2018-10-06T20:33:48.592Z,12.30
2018-10-06T20:36:17.093Z,13.80
2018-10-06T20:38:45.639Z,13.30
2018-10-06T20:41:14.138Z,14.10
2018-10-06T20:43:42.666Z,15.03
2018-10-06T20:46:11.238Z,14.43
2018-10-06T20:48:39.761Z,13.60
2018-10-06T20:51:08.292Z,13.60
2018-10-06T20:53:36.819Z,13.73
2018-10-06T20:56:05.347Z,13.97
2018-10-06T20:58:33.882Z,11.80
2018-10-06T21:01:02.391Z,12.20
2018-10-06T21:03:30.930Z,14.00
2018-10-06T21:05:59.445Z,14.33
2018-10-06T21:08:28.002Z,14.67
2018-10-06T21:10:56.596Z,14.93
2018-10-06T21:13:25.108Z,16.40
2018-10-06T21:15:53.616Z,14.60
2018-10-06T21:18:22.177Z,16.10
2018-10-06T21:20:50.698Z,16.57
2018-10-06T21:23:19.244Z,14.33
2018-10-06T21:25:47.777Z,16.30
2018-10-06T21:28:16.323Z,14.70
2018-10-06T21:30:44.916Z,15.70
2018-10-06T21:33:13.489Z,16.83
2018-10-06T21:35:42.087Z,17.80
2018-10-06T21:38:10.622Z,18.10
2018-10-06T21:40:39.170Z,20.03
2018-10-06T21:43:07.731Z,22.63
2018-10-06T21:45:36.237Z,19.97
2018-10-06T21:48:04.781Z,22.23
2018-10-06T21:50:33.338Z,18.50
2018-10-06T21:53:01.884Z,19.70
2018-10-06T21:55:30.406Z,17.27
2018-10-06T21:57:59.021Z,16.27
2018-10-06T22:00:27.690Z,16.53
2018-10-06T22:02:56.241Z,15.80
2018-10-06T22:05:24.763Z,17.10
2018-10-06T22:07:53.489Z,16.87
2018-10-06T22:10:22.008Z,15.90
2018-10-06T22:12:50.535Z,16.73
2018-10-06T22:15:19.068Z,16.43
2018-10-06T22:17:47.655Z,16.73
2018-10-06T22:20:16.437Z,16.33
2018-10-06T22:22:44.990Z,16.80
2018-10-06T22:25:13.500Z,18.40
2018-10-06T22:27:42.051Z,18.50
2018-10-06T22:30:10.775Z,18.33
2018-10-06T22:32:39.313Z,16.40
2018-10-06T22:35:07.885Z,17.17
2018-10-06T22:37:36.405Z,17.60
2018-10-06T22:40:04.997Z,18.10
2018-10-06T22:42:33.524Z,19.23
2018-10-06T22:45:02.056Z,18.20
2018-10-06T22:47:30.604Z,19.23
2018-10-06T22:49:59.152Z,19.53
2018-10-06T22:52:27.662Z,18.87
2018-10-06T22:54:56.199Z,19.93
2018-10-06T22:57:24.714Z,20.50
2018-10-06T22:59:53.259Z,19.20
2018-10-06T23:02:21.764Z,18.33
2018-10-06T23:04:50.293Z,19.20
2018-10-06T23:07:18.793Z,20.50
2018-10-06T23:09:47.336Z,20.37
2018-10-06T23:12:15.837Z,19.40
2018-10-06T23:14:44.370Z,21.80
2018-10-06T23:17:12.889Z,20.37
2018-10-06T23:19:41.586Z,20.83
2018-10-06T23:22:10.097Z,20.47
2018-10-06T23:24:38.635Z,18.77
2018-10-06T23:27:07.153Z,18.60
2018-10-06T23:29:35.689Z,18.20
2018-10-06T23:32:04.197Z,18.70
2018-10-06T23:34:32.860Z,20.60
2018-10-06T23:37:01.385Z,20.63
2018-10-06T23:39:29.922Z,20.00
2018-10-06T23:41:58.456Z,21.53
2018-10-06T23:44:27.000Z,21.60
2018-10-06T23:46:55.510Z,21.37
2018-10-06T23:49:24.056Z,21.20
2018-10-06T23:51:52.569Z,21.03
2018-10-06T23:54:21.106Z,20.97
2018-10-06T23:56:49.618Z,21.10
2018-10-06T23:59:18.156Z,21.07
